Time;durP1;ratioP1;P1;durP2;ratioP2;P2;SDS_P1;SDS_P2;PMS_P1;PMS_P2;Temp;Humidity;BMP_temperature;BMP_pressure;BME280_temperature;BME280_humidity;BME280_pressure;Samples;Min_cycle;Max_cycle;Signal;HPM_P1;HPM_P2
2021/04/20 00:00:15;;;;;;;24.27;16.48;;;;;;;5.78;100.00;96091.06;1027660;28;20022;-60
2021/04/20 00:00:46;;;;;;;26.98;17.08;;;;;;;5.69;100.00;96079.56;1027642;28;20027;-61
2021/04/20 00:01:17;;;;;;;25.75;17.88;;;;;;;5.75;100.00;96091.38;1027460;28;20077;-61
2021/04/20 00:01:48;;;;;;;27.73;17.48;;;;;;;5.76;100.00;96085.94;1027561;28;20452;-61
2021/04/20 00:02:19;;;;;;;24.23;16.38;;;;;;;5.77;100.00;96089.41;1027594;28;20102;-60
2021/04/20 00:02:49;;;;;;;26.00;17.33;;;;;;;5.55;100.00;96051.03;1023542;29;20408;-61
2021/04/20 00:03:20;;;;;;;25.88;16.80;;;;;;;5.72;100.00;96079.28;1031420;28;20038;-61
2021/04/20 00:03:51;;;;;;;24.83;16.90;;;;;;;5.80;100.00;96089.09;1027337;28;20138;-61
2021/04/20 00:04:22;;;;;;;27.27;16.98;;;;;;;5.81;100.00;96091.59;1027549;28;20026;-61
2021/04/20 00:04:52;;;;;;;25.77;17.23;;;;;;;5.81;100.00;96086.34;1019552;29;20043;-61
2021/04/20 00:05:23;;;;;;;26.95;17.55;;;;;;;5.79;100.00;96090.91;1023605;28;20028;-61
2021/04/20 00:05:54;;;;;;;26.65;18.20;;;;;;;5.83;100.00;96087.03;1023564;29;20529;-61
2021/04/20 00:06:24;;;;;;;25.88;17.50;;;;;;;5.84;100.00;96093.97;1027615;28;20023;-61
2021/04/20 00:06:55;;;;;;;24.77;17.05;;;;;;;5.84;100.00;96096.59;1027513;28;20082;-61
2021/04/20 00:07:26;;;;;;;25.80;17.88;;;;;;;5.84;100.00;96086.06;1023456;29;20031;-61
2021/04/20 00:07:57;;;;;;;27.95;18.75;;;;;;;5.76;100.00;96085.94;1027568;28;20031;-60
2021/04/20 00:08:28;;;;;;;25.80;16.42;;;;;;;5.83;100.00;96092.31;1027554;28;20023;-60
2021/04/20 00:08:58;;;;;;;23.60;17.35;;;;;;;5.85;100.00;96095.63;1031556;28;20053;-61
2021/04/20 00:09:29;;;;;;;28.00;18.50;;;;;;;5.87;100.00;96092.84;1031500;28;20054;-62
2021/04/20 00:10:00;;;;;;;27.13;17.95;;;;;;;5.86;100.00;96089.38;1027440;28;20019;-61
2021/04/20 00:10:31;;;;;;;25.33;18.58;;;;;;;5.84;100.00;96087.88;1027559;28;20484;-61
2021/04/20 00:11:02;;;;;;;25.63;17.70;;;;;;;5.81;100.00;96086.34;1027511;28;20083;-61
2021/04/20 00:11:32;;;;;;;28.63;19.00;;;;;;;5.85;100.00;96089.50;1027485;28;20026;-61
2021/04/20 00:12:04;;;;;;;29.08;18.15;;;;;;;5.88;100.00;96089.22;1027594;28;20018;-61
2021/04/20 00:12:35;;;;;;;28.15;18.85;;;;;;;5.88;100.00;96088.41;1027364;28;20464;-61
2021/04/20 00:13:05;;;;;;;25.20;17.92;;;;;;;5.80;100.00;96074.16;1031442;28;20057;-61
2021/04/20 00:13:36;;;;;;;25.88;18.00;;;;;;;5.78;100.00;96086.63;1023224;29;20043;-61
2021/04/20 00:14:09;;;;;;;25.98;18.00;;;;;;;5.77;100.00;96090.22;1023510;28;20045;-61
2021/04/20 00:14:40;;;;;;;28.70;18.17;;;;;;;5.69;100.00;96091.91;1031563;28;20486;-61
2021/04/20 00:15:12;;;;;;;27.05;18.70;;;;;;;5.73;100.00;96085.38;1027569;28;20103;-61
2021/04/20 00:15:43;;;;;;;27.63;19.08;;;;;;;5.77;100.00;96084.97;1023479;29;20046;-62
2021/04/20 00:16:14;;;;;;;28.20;18.05;;;;;;;5.77;100.00;96087.59;1027468;28;20401;-62
2021/04/20 00:16:45;;;;;;;29.92;19.40;;;;;;;5.80;100.00;96086.47;1027557;28;20054;-61
2021/04/20 00:17:16;;;;;;;30.52;18.83;;;;;;;5.76;100.00;96085.94;1023415;29;20539;-59
2021/04/20 00:17:48;;;;;;;28.23;18.98;;;;;;;5.75;100.00;96086.91;1023413;29;20049;-62
2021/04/20 00:18:20;;;;;;;28.00;18.48;;;;;;;5.75;100.00;96086.91;1023516;29;20023;-60
2021/04/20 00:18:50;;;;;;;32.00;20.88;;;;;;;5.79;100.00;96088.28;1035545;28;20021;-62
2021/04/20 00:19:22;;;;;;;34.22;20.95;;;;;;;5.78;100.00;96083.16;1023634;29;20494;-63
2021/04/20 00:19:52;;;;;;;30.17;20.33;;;;;;;5.80;100.00;96087.31;1023423;28;20044;-61
2021/04/20 00:20:23;;;;;;;28.70;19.33;;;;;;;5.82;100.00;96081.91;1019630;29;20577;-61
2021/04/20 00:20:55;;;;;;;27.38;18.75;;;;;;;5.85;100.00;96081.59;1027489;28;20023;-61
2021/04/20 00:21:26;;;;;;;29.23;19.00;;;;;;;5.78;100.00;96081.38;1031465;28;20052;-61
2021/04/20 00:21:57;;;;;;;30.20;19.63;;;;;;;5.79;100.00;96085.66;1031397;28;20026;-62
2021/04/20 00:22:28;;;;;;;29.55;19.60;;;;;;;5.81;100.00;96080.25;1019572;29;20042;-62
2021/04/20 00:22:58;;;;;;;28.95;20.27;;;;;;;5.81;100.00;96086.34;1027555;28;20106;-61
2021/04/20 00:23:29;;;;;;;34.15;21.08;;;;;;;5.80;100.00;96082.06;1019397;29;20031;-59
2021/04/20 00:24:00;;;;;;;26.58;18.73;;;;;;;5.83;100.00;96079.13;1023289;28;20024;-61
2021/04/20 00:24:31;;;;;;;29.75;19.42;;;;;;;5.86;100.00;96083.28;1019570;29;20533;-61
2021/04/20 00:25:01;;;;;;;29.77;19.67;;;;;;;5.88;100.00;96080.50;1027517;28;20026;-61
2021/04/20 00:25:32;;;;;;;29.58;19.13;;;;;;;5.87;100.00;96082.31;1035551;28;20022;-61
2021/04/20 00:26:03;;;;;;;27.98;18.55;;;;;;;5.90;100.00;96086.47;1023356;29;20516;-61
2021/04/20 00:26:34;;;;;;;28.02;18.73;;;;;;;5.90;100.00;96078.53;1023497;29;20428;-61
2021/04/20 00:27:05;;;;;;;30.25;19.35;;;;;;;5.85;100.00;96081.59;1019520;29;20398;-60
2021/04/20 00:27:36;;;;;;;28.48;19.77;;;;;;;5.88;100.00;96078.69;1023514;29;20028;-61
2021/04/20 00:28:06;;;;;;;32.58;20.23;;;;;;;5.91;100.00;96080.22;1023401;29;20517;-60
2021/04/20 00:28:37;;;;;;;31.25;20.73;;;;;;;5.90;100.00;96083.81;1031494;28;20022;-62
2021/04/20 00:29:08;;;;;;;31.50;19.63;;;;;;;5.86;100.00;96070.09;1023515;29;20027;-61
2021/04/20 00:29:39;;;;;;;31.13;20.85;;;;;;;5.89;100.00;96075.09;1027544;28;20022;-61
2021/04/20 00:30:10;;;;;;;32.35;20.40;;;;;;;5.91;100.00;96077.59;1031463;28;20026;-61
2021/04/20 00:30:41;;;;;;;31.92;20.65;;;;;;;5.92;100.00;96068.69;1023481;28;20449;-61
2021/04/20 00:31:12;;;;;;;31.10;20.55;;;;;;;5.92;100.00;96079.22;1023546;29;20023;-62
2021/04/20 00:31:43;;;;;;;31.90;20.65;;;;;;;5.88;100.00;96068.16;1031580;28;20026;-61
2021/04/20 00:32:14;;;;;;;29.70;20.15;;;;;;;5.91;100.00;96067.03;1031449;28;20019;-61
2021/04/20 00:32:45;;;;;;;30.08;20.33;;;;;;;5.90;100.00;96076.72;1019577;29;20015;-61
2021/04/20 00:33:15;;;;;;;30.23;19.80;;;;;;;5.89;100.00;96075.09;1035513;28;20026;-60
2021/04/20 00:33:46;;;;;;;29.95;21.38;;;;;;;5.83;100.00;96059.84;1027359;28;20022;-61
2021/04/20 00:34:19;;;;;;;29.88;20.15;;;;;;;5.85;100.00;96057.88;1023447;28;20027;-62
2021/04/20 00:34:50;;;;;;;32.15;20.33;;;;;;;5.88;100.00;96067.31;1031480;28;20046;-61
2021/04/20 00:35:21;;;;;;;31.58;21.17;;;;;;;5.85;100.00;96076.34;1027530;28;20026;-62
2021/04/20 00:35:52;;;;;;;31.73;21.77;;;;;;;5.81;100.00;96074.97;1023535;29;20133;-61
2021/04/20 00:36:23;;;;;;;31.27;21.05;;;;;;;5.81;100.00;96070.53;1015521;29;20051;-62
2021/04/20 00:36:54;;;;;;;30.17;20.25;;;;;;;5.71;100.00;96072.34;1015528;29;20028;-60
2021/04/20 00:37:25;;;;;;;32.22;20.98;;;;;;;5.78;100.00;96069.97;1024329;29;20516;-61
2021/04/20 00:37:55;;;;;;;27.88;20.33;;;;;;;5.80;100.00;96068.88;1020307;29;20020;-61
2021/04/20 00:38:26;;;;;;;31.85;20.80;;;;;;;5.75;100.00;96076.38;1020105;29;20513;-61
2021/04/20 00:38:57;;;;;;;31.20;20.45;;;;;;;5.78;100.00;96076.09;1032093;28;20101;-62
2021/04/20 00:39:28;;;;;;;34.25;22.35;;;;;;;5.76;100.00;96070.13;1032164;28;20010;-62
2021/04/20 00:39:59;;;;;;;33.45;21.52;;;;;;;5.74;100.00;96061.53;1020256;29;20020;-62
2021/04/20 00:40:30;;;;;;;32.63;22.02;;;;;;;5.80;100.00;96068.88;1032147;28;20041;-61
2021/04/20 00:41:11;;;;;;;30.52;20.30;;;;;;;5.75;100.00;96070.28;1024154;29;20489;-61
2021/04/20 00:41:41;;;;;;;33.33;20.67;;;;;;;5.72;100.00;96063.47;1028256;28;20027;-61
2021/04/20 00:42:13;;;;;;;29.83;20.95;;;;;;;5.75;100.00;96070.28;1032220;28;20014;-62
2021/04/20 00:42:55;;;;;;;32.83;21.27;;;;;;;5.78;100.00;96070.84;1024049;29;20046;-61
2021/04/20 00:43:35;;;;;;;31.70;21.42;;;;;;;5.78;100.00;96072.63;1028199;28;20105;-61
2021/04/20 00:44:06;;;;;;;33.95;20.67;;;;;;;5.76;100.00;96069.28;1028118;28;20023;-61
2021/04/20 00:44:37;;;;;;;32.08;20.80;;;;;;;5.72;100.00;96066.13;1024221;29;20425;-60
2021/04/20 00:45:09;;;;;;;32.33;21.52;;;;;;;5.75;100.00;96068.47;1024194;29;20424;-60
2021/04/20 00:45:40;;;;;;;34.80;21.75;;;;;;;5.73;100.00;96066.94;1024335;29;20043;-59
2021/04/20 00:46:12;;;;;;;32.63;21.80;;;;;;;5.79;100.00;96069.00;1024331;29;20101;-61
2021/04/20 00:46:43;;;;;;;31.08;21.25;;;;;;;5.84;100.00;96061.50;1028202;28;20026;-61
2021/04/20 00:47:14;;;;;;;31.50;21.15;;;;;;;5.84;100.00;96061.50;1024079;29;20082;-62
2021/04/20 00:47:45;;;;;;;33.75;21.98;;;;;;;5.87;100.00;96063.88;1028216;28;20023;-61
2021/04/20 00:48:16;;;;;;;30.67;22.08;;;;;;;5.88;100.00;96062.88;1024331;29;20031;-62
2021/04/20 00:48:47;;;;;;;33.67;22.55;;;;;;;5.89;100.00;96058.44;1032327;28;20440;-61
2021/04/20 00:49:18;;;;;;;32.15;21.77;;;;;;;5.90;100.00;96060.91;1020301;29;20083;-62
2021/04/20 00:49:49;;;;;;;32.25;21.73;;;;;;;5.91;100.00;96061.78;1028357;28;20026;-62
2021/04/20 00:50:23;;;;;;;37.67;23.50;;;;;;;5.88;100.00;96065.50;1028251;28;20038;-61
2021/04/20 00:50:53;;;;;;;31.02;21.83;;;;;;;5.87;100.00;96066.50;1024422;29;20023;-62
2021/04/20 00:51:24;;;;;;;32.97;21.17;;;;;;;5.90;100.00;96065.38;1016490;29;20435;-62
2021/04/20 00:51:55;;;;;;;34.35;21.98;;;;;;;5.91;100.00;96059.97;1016404;29;20020;-59
2021/04/20 00:52:26;;;;;;;31.55;21.25;;;;;;;5.94;100.00;96066.72;1016386;29;20047;-62
2021/04/20 00:52:58;;;;;;;32.88;21.25;;;;;;;5.94;100.00;96062.31;1024319;29;20031;-61
2021/04/20 00:53:28;;;;;;;31.63;22.33;;;;;;;5.95;100.00;96068.41;1020227;29;20035;-62
2021/04/20 00:53:59;;;;;;;32.53;21.77;;;;;;;5.95;100.00;96069.22;1024184;29;20019;-61
2021/04/20 00:54:30;;;;;;;34.90;22.80;;;;;;;5.90;100.00;96065.38;1040552;28;20021;-61
2021/04/20 00:55:01;;;;;;;35.15;22.45;;;;;;;5.89;100.00;96055.78;1028484;28;20050;-62
2021/04/20 00:55:32;;;;;;;31.60;21.88;;;;;;;5.94;100.00;96058.81;1040244;28;20018;-61
2021/04/20 00:56:03;;;;;;;36.25;23.05;;;;;;;5.92;100.00;96064.28;1039416;28;20049;-62
2021/04/20 00:56:34;;;;;;;33.33;21.48;;;;;;;5.91;100.00;96067.03;1039200;28;20451;-61
2021/04/20 00:57:07;;;;;;;35.83;22.73;;;;;;;5.86;100.00;96057.75;1031232;28;20075;-61
2021/04/20 00:57:38;;;;;;;34.17;23.90;;;;;;;5.91;100.00;96059.97;1031845;28;20090;-62
2021/04/20 00:58:09;;;;;;;36.17;23.70;;;;;;;5.90;100.00;96066.19;1031123;28;20025;-62
2021/04/20 00:58:40;;;;;;;34.80;23.40;;;;;;;5.91;100.00;96067.03;1023140;29;20087;-61
2021/04/20 00:59:11;;;;;;;36.42;23.48;;;;;;;5.85;100.00;96068.44;1035018;28;20015;-63
2021/04/20 00:59:42;;;;;;;35.17;23.40;;;;;;;5.80;100.00;96068.88;1035079;28;20018;-61
2021/04/20 01:00:17;;;;;;;34.72;22.83;;;;;;;5.80;100.00;96060.13;1031155;28;20015;-62
2021/04/20 01:00:48;;;;;;;36.25;22.67;;;;;;;5.81;100.00;96067.88;1035096;28;20011;-61
2021/04/20 01:01:19;;;;;;;32.83;22.23;;;;;;;5.83;100.00;96068.59;1039332;28;20014;-62
2021/04/20 01:01:50;;;;;;;33.33;22.50;;;;;;;5.86;100.00;96070.09;1031130;28;20050;-61
2021/04/20 01:02:21;;;;;;;35.95;22.38;;;;;;;5.86;100.00;96063.00;1030989;28;20149;-62
2021/04/20 01:02:53;;;;;;;37.03;23.25;;;;;;;5.87;100.00;96061.22;1035247;28;20010;-61
2021/04/20 01:03:24;;;;;;;37.47;22.80;;;;;;;5.86;100.00;96063.00;1035049;28;20126;-61
2021/04/20 01:03:55;;;;;;;36.08;24.17;;;;;;;5.91;100.00;96069.69;1031041;28;20054;-61
2021/04/20 01:04:25;;;;;;;35.17;23.20;;;;;;;5.84;100.00;96062.34;1035024;28;20097;-61
2021/04/20 01:04:56;;;;;;;35.42;22.95;;;;;;;5.90;100.00;96060.09;1033096;28;20118;-61
2021/04/20 01:05:36;;;;;;;35.83;22.77;;;;;;;5.85;100.00;96068.44;1028077;28;20015;-62
2021/04/20 01:06:06;;;;;;;36.60;22.85;;;;;;;5.84;100.00;96058.88;1028192;28;20019;-63
2021/04/20 01:06:39;;;;;;;32.25;22.08;;;;;;;5.85;100.00;96058.75;1032098;28;20022;-62
2021/04/20 01:07:10;;;;;;;32.88;22.15;;;;;;;5.85;100.00;96064.00;1020170;29;20528;-61
2021/04/20 01:07:42;;;;;;;33.20;22.30;;;;;;;5.85;100.00;96058.75;1032018;28;20017;-61
2021/04/20 01:08:14;;;;;;;32.10;21.70;;;;;;;5.86;100.00;96064.84;1028148;28;20014;-61
2021/04/20 01:08:45;;;;;;;31.92;22.25;;;;;;;5.86;100.00;96057.75;1024128;28;20102;-61
2021/04/20 01:09:17;;;;;;;33.03;22.65;;;;;;;5.88;100.00;96057.59;1024114;29;20393;-61
2021/04/20 01:09:48;;;;;;;35.38;22.45;;;;;;;5.75;100.00;96057.94;1028029;28;20015;-61
2021/04/20 01:10:18;;;;;;;37.28;23.80;;;;;;;5.81;100.00;96052.06;1032509;28;20438;-61
2021/04/20 01:10:51;;;;;;;35.03;23.00;;;;;;;5.78;100.00;96064.72;1036180;28;20113;-61
2021/04/20 01:11:22;;;;;;;34.45;23.90;;;;;;;5.75;100.00;96051.84;1036049;28;20018;-61
2021/04/20 01:11:53;;;;;;;34.65;23.67;;;;;;;5.78;100.00;96054.16;1028031;28;20011;-61
2021/04/20 01:12:24;;;;;;;35.17;22.92;;;;;;;5.81;100.00;96057.34;1028125;28;20074;-61
2021/04/20 01:12:55;;;;;;;35.03;23.13;;;;;;;5.78;100.00;96056.81;1024212;29;20023;-60
2021/04/20 01:13:29;;;;;;;33.97;22.50;;;;;;;5.78;100.00;96065.56;1032121;28;20423;-61
2021/04/20 01:14:01;;;;;;;34.88;22.52;;;;;;;5.79;100.00;96051.38;1023904;28;20019;-61
2021/04/20 01:14:32;;;;;;;33.53;22.25;;;;;;;5.84;100.00;96049.16;1024039;29;20493;-60
2021/04/20 01:15:05;;;;;;;34.55;21.98;;;;;;;5.86;100.00;96054.28;1032095;28;20019;-61
2021/04/20 01:15:37;;;;;;;36.70;22.67;;;;;;;5.85;100.00;96064.00;1028027;28;20081;-60
2021/04/20 01:16:08;;;;;;;34.10;22.80;;;;;;;5.83;100.00;96051.94;1024108;29;20097;-59
2021/04/20 01:16:39;;;;;;;36.22;23.08;;;;;;;5.80;100.00;96055.69;1028106;28;20536;-59
2021/04/20 01:17:10;;;;;;;35.95;22.88;;;;;;;5.83;100.00;96050.16;1028118;28;20022;-59
2021/04/20 01:17:41;;;;;;;35.33;23.88;;;;;;;5.79;100.00;96051.38;1020169;29;20114;-60
2021/04/20 01:18:13;;;;;;;36.33;23.17;;;;;;;5.79;100.00;96055.84;1020072;29;20430;-61
2021/04/20 01:18:44;;;;;;;38.05;23.67;;;;;;;5.79;100.00;96050.56;1020055;29;20113;-60
2021/04/20 01:19:16;;;;;;;39.17;24.45;;;;;;;5.77;100.00;96049.88;1024095;29;20027;-61
2021/04/20 01:19:46;;;;;;;40.85;24.63;;;;;;;5.81;100.00;96051.25;1028150;28;20171;-60
2021/04/20 01:20:17;;;;;;;38.47;23.48;;;;;;;5.72;100.00;96058.22;1023953;29;20031;-60
2021/04/20 01:20:51;;;;;;;36.00;24.67;;;;;;;5.76;100.00;96051.66;1020056;29;20023;-61
2021/04/20 01:21:22;;;;;;;37.35;24.67;;;;;;;5.74;100.00;96058.06;1028088;28;20022;-59
2021/04/20 01:21:53;;;;;;;38.35;24.80;;;;;;;5.76;100.00;96059.56;1032086;28;20125;-60
2021/04/20 01:22:23;;;;;;;36.45;24.13;;;;;;;5.76;100.00;96054.31;1027951;28;20121;-61
2021/04/20 01:22:54;;;;;;;42.75;26.17;;;;;;;5.64;100.00;96055.44;1032038;28;20065;-59
2021/04/20 01:23:45;;;;;;;37.00;24.85;;;;;;;5.65;100.00;96055.31;1031977;28;20049;-60
2021/04/20 01:24:24;;;;;;;42.53;25.35;;;;;;;5.74;100.00;96055.44;1031927;28;20480;-62
2021/04/20 01:24:55;;;;;;;43.72;26.38;;;;;;;5.75;100.00;96054.47;1032060;28;20025;-62
2021/04/20 01:25:26;;;;;;;37.47;23.50;;;;;;;5.73;100.00;96065.16;1024150;29;20489;-61
2021/04/20 01:25:57;;;;;;;36.97;24.27;;;;;;;5.67;100.00;96061.25;1027960;28;20038;-60
2021/04/20 01:26:30;;;;;;;38.65;24.42;;;;;;;5.72;100.00;96060.84;1027952;28;20022;-60
2021/04/20 01:27:01;;;;;;;38.95;24.45;;;;;;;5.71;100.00;96056.53;1023935;28;20027;-60
2021/04/20 01:27:32;;;;;;;40.88;25.05;;;;;;;5.71;100.00;96066.25;1032057;28;20444;-61
2021/04/20 01:28:03;;;;;;;37.25;24.75;;;;;;;5.73;100.00;96059.88;1023972;29;20577;-61
2021/04/20 01:28:34;;;;;;;35.88;23.63;;;;;;;5.69;100.00;96063.75;1023880;28;20045;-61
2021/04/20 01:29:05;;;;;;;36.13;23.88;;;;;;;5.65;100.00;96057.94;1027977;28;20030;-60
2021/04/20 01:29:36;;;;;;;34.28;23.10;;;;;;;5.70;100.00;96054.91;1028037;28;20031;-61
2021/04/20 01:30:09;;;;;;;36.08;24.00;;;;;;;5.65;100.00;96057.13;1020073;29;20075;-61
2021/04/20 01:30:39;;;;;;;41.03;23.80;;;;;;;5.64;100.00;96055.44;1019951;29;20075;-61
2021/04/20 01:31:12;;;;;;;36.47;23.90;;;;;;;5.70;100.00;96054.06;1020063;29;20197;-61
2021/04/20 01:31:43;;;;;;;38.63;24.67;;;;;;;5.69;100.00;96047.94;1020038;29;20075;-62
2021/04/20 01:32:14;;;;;;;36.70;23.92;;;;;;;5.75;100.00;96055.31;1016042;29;20043;-62
2021/04/20 01:32:45;;;;;;;37.45;23.48;;;;;;;5.75;100.00;96052.66;1023905;29;20034;-61
2021/04/20 01:33:15;;;;;;;39.58;24.48;;;;;;;5.75;100.00;96047.41;1023972;29;20419;-61
2021/04/20 01:33:46;;;;;;;36.35;24.25;;;;;;;5.77;100.00;96053.34;1027850;28;20421;-61
2021/04/20 01:34:17;;;;;;;40.13;25.20;;;;;;;5.77;100.00;96061.25;1027963;28;20023;-61
2021/04/20 01:34:48;;;;;;;36.25;23.52;;;;;;;5.68;100.00;96067.38;1023924;29;20046;-61
2021/04/20 01:35:19;;;;;;;36.33;23.98;;;;;;;5.68;100.00;96059.47;1027985;28;20023;-61
2021/04/20 01:35:50;;;;;;;41.08;25.83;;;;;;;5.66;100.00;96059.63;1020094;29;20020;-62
2021/04/20 01:36:22;;;;;;;37.08;25.10;;;;;;;5.63;100.00;96062.53;1027887;28;20026;-62
2021/04/20 01:36:53;;;;;;;42.15;25.52;;;;;;;5.66;100.00;96061.44;1023905;29;20027;-61
2021/04/20 01:37:24;;;;;;;39.30;25.55;;;;;;;5.69;100.00;96057.66;1023957;29;20011;-61
2021/04/20 01:37:55;;;;;;;40.70;25.98;;;;;;;5.64;100.00;96066.00;1024078;29;20015;-61
2021/04/20 01:38:29;;;;;;;37.83;24.27;;;;;;;5.67;100.00;96061.25;1024050;29;20154;-61
2021/04/20 01:39:00;;;;;;;40.47;25.58;;;;;;;5.69;100.00;96057.66;1027910;28;20138;-62
2021/04/20 01:39:31;;;;;;;41.90;25.77;;;;;;;5.70;100.00;96057.53;1027906;28;20023;-61
2021/04/20 01:40:04;;;;;;;40.17;25.67;;;;;;;5.71;100.00;96067.06;1031953;28;20014;-62
2021/04/20 01:40:35;;;;;;;37.90;25.40;;;;;;;5.72;100.00;96060.84;1032056;28;20034;-61
2021/04/20 01:41:06;;;;;;;38.35;25.05;;;;;;;5.76;100.00;96064.03;1023896;29;20501;-61
2021/04/20 01:41:38;;;;;;;37.50;24.55;;;;;;;5.73;100.00;96065.16;1023954;29;20019;-61
2021/04/20 01:42:10;;;;;;;38.17;24.50;;;;;;;5.73;100.00;96064.31;1031949;28;20575;-62
2021/04/20 01:42:41;;;;;;;37.92;24.95;;;;;;;5.72;100.00;96068.75;1027867;28;20440;-62
2021/04/20 01:43:13;;;;;;;37.88;25.02;;;;;;;5.76;100.00;96064.84;1031903;28;20015;-61
2021/04/20 01:43:44;;;;;;;42.88;26.33;;;;;;;5.75;100.00;96063.19;1027774;28;20050;-61
2021/04/20 01:44:15;;;;;;;41.03;26.42;;;;;;;5.75;100.00;96050.03;1023993;29;20033;-61
2021/04/20 01:44:46;;;;;;;39.22;26.02;;;;;;;5.68;100.00;96062.13;1023939;29;20066;-62
2021/04/20 01:45:18;;;;;;;43.88;27.00;;;;;;;5.65;100.00;96067.66;1019917;28;20067;-61
2021/04/20 01:45:49;;;;;;;38.92;25.77;;;;;;;5.65;100.00;96065.03;1016120;29;20253;-62
2021/04/20 01:46:20;;;;;;;39.85;26.33;;;;;;;5.70;100.00;96070.72;1027963;28;20102;-61
2021/04/20 01:46:51;;;;;;;38.55;25.30;;;;;;;5.69;100.00;96063.75;1023901;29;20149;-62
2021/04/20 01:47:22;;;;;;;40.83;27.73;;;;;;;5.70;100.00;96060.16;1019833;29;20034;-62
2021/04/20 01:47:53;;;;;;;43.25;27.67;;;;;;;5.72;100.00;96060.84;1023895;29;20059;-61
2021/04/20 01:48:24;;;;;;;37.72;24.75;;;;;;;5.75;100.00;96057.13;1031874;28;20109;-62
2021/04/20 01:48:55;;;;;;;40.97;26.50;;;;;;;5.69;100.00;96060.31;1027308;28;20394;-62
2021/04/20 01:49:26;;;;;;;41.33;25.75;;;;;;;5.63;100.00;96066.97;1035866;28;20108;-61
2021/04/20 01:49:57;;;;;;;37.67;24.42;;;;;;;5.66;100.00;96061.44;1027906;28;20516;-62
2021/04/20 01:50:28;;;;;;;41.05;25.95;;;;;;;5.71;100.00;96061.81;1027925;28;20085;-61
2021/04/20 01:50:59;;;;;;;42.55;27.42;;;;;;;5.69;100.00;96058.50;1023908;28;20026;-62
2021/04/20 01:51:30;;;;;;;39.25;25.85;;;;;;;5.63;100.00;96062.53;1027952;28;20467;-62
2021/04/20 01:52:01;;;;;;;40.05;26.08;;;;;;;5.63;100.00;96075.72;1023893;29;20019;-61
2021/04/20 01:52:33;;;;;;;38.22;24.17;;;;;;;5.64;100.00;96066.00;1023848;29;20453;-61
2021/04/20 01:53:03;;;;;;;41.30;26.00;;;;;;;5.69;100.00;96063.75;1023922;29;20023;-63
2021/04/20 01:53:34;;;;;;;41.00;26.00;;;;;;;5.67;100.00;96065.72;1023707;29;20023;-61
2021/04/20 01:54:05;;;;;;;42.90;26.15;;;;;;;5.65;100.00;96065.84;1023833;29;20024;-61
2021/04/20 01:54:39;;;;;;;41.10;25.40;;;;;;;5.66;100.00;96062.25;1027935;28;20029;-62
2021/04/20 01:55:11;;;;;;;41.40;25.95;;;;;;;5.69;100.00;96062.94;1027846;28;20046;-60
2021/04/20 01:55:42;;;;;;;39.08;25.45;;;;;;;5.66;100.00;96066.72;1027789;28;20023;-60
2021/04/20 01:56:14;;;;;;;39.50;24.88;;;;;;;5.71;100.00;96067.06;1027975;28;20153;-61
2021/04/20 01:56:45;;;;;;;41.53;25.75;;;;;;;5.70;100.00;96065.44;1028027;28;20035;-61
2021/04/20 01:57:16;;;;;;;44.33;27.50;;;;;;;5.73;100.00;96072.22;1028293;28;20023;-62
2021/04/20 01:57:48;;;;;;;43.13;26.02;;;;;;;5.70;100.00;96056.72;1023806;29;20377;-61
2021/04/20 01:58:19;;;;;;;40.33;25.23;;;;;;;5.73;100.00;96065.16;1023887;28;20545;-61
2021/04/20 01:58:50;;;;;;;40.67;26.15;;;;;;;5.72;100.00;96066.13;1027921;28;20019;-61
2021/04/20 01:59:21;;;;;;;43.45;27.75;;;;;;;5.76;100.00;96066.66;1031883;28;20030;-61
2021/04/20 01:59:52;;;;;;;40.25;26.52;;;;;;;5.76;100.00;96062.22;1027778;28;20453;-62
2021/04/20 02:00:24;;;;;;;42.38;27.33;;;;;;;5.76;100.00;96064.03;1019866;28;20059;-62
2021/04/20 02:00:55;;;;;;;44.22;27.23;;;;;;;5.74;100.00;96066.81;1027857;28;20109;-61
2021/04/20 02:01:28;;;;;;;41.55;27.02;;;;;;;5.78;100.00;96068.19;1027856;28;20030;-60
2021/04/20 02:01:58;;;;;;;40.00;26.58;;;;;;;5.80;100.00;96062.75;1023837;29;20023;-61
2021/04/20 02:02:29;;;;;;;42.58;26.15;;;;;;;5.81;100.00;96059.97;1031845;28;20404;-60
2021/04/20 02:03:00;;;;;;;44.35;27.40;;;;;;;5.71;100.00;96064.44;1027907;28;20022;-60
2021/04/20 02:03:31;;;;;;;44.40;28.10;;;;;;;5.65;100.00;96063.22;1019742;29;20020;-59
2021/04/20 02:04:02;;;;;;;47.85;29.13;;;;;;;5.70;100.00;96061.97;1019748;29;20083;-61
2021/04/20 02:04:34;;;;;;;47.55;29.58;;;;;;;5.71;100.00;96061.81;1027916;28;20042;-60
2021/04/20 02:05:06;;;;;;;47.05;28.95;;;;;;;5.67;100.00;96065.72;1023921;29;20545;-60
2021/04/20 02:05:37;;;;;;;48.10;29.83;;;;;;;5.64;100.00;96056.31;1027868;28;20045;-61
2021/04/20 02:06:08;;;;;;;52.05;30.52;;;;;;;5.61;100.00;96059.22;1031771;28;20026;-62
2021/04/20 02:06:39;;;;;;;44.90;28.08;;;;;;;5.62;100.00;96067.94;1027812;28;20027;-62
2021/04/20 02:07:10;;;;;;;45.78;29.60;;;;;;;5.63;100.00;96066.97;1039980;28;20522;-62
2021/04/20 02:07:40;;;;;;;47.83;29.27;;;;;;;5.60;100.00;96064.63;1031877;28;20014;-62
2021/04/20 02:08:11;;;;;;;43.65;27.98;;;;;;;5.61;100.00;96066.31;1027845;28;20023;-62
2021/04/20 02:08:43;;;;;;;47.35;28.95;;;;;;;5.55;100.00;96059.78;1027854;28;20106;-62
2021/04/20 02:09:14;;;;;;;46.83;28.38;;;;;;;5.62;100.00;96062.69;1027917;28;20022;-62
2021/04/20 02:09:44;;;;;;;45.97;29.65;;;;;;;5.65;100.00;96070.31;1027818;28;20022;-61
2021/04/20 02:10:15;;;;;;;49.25;29.73;;;;;;;5.59;100.00;96055.03;1027808;28;20118;-60
2021/04/20 02:10:47;;;;;;;49.78;30.92;;;;;;;5.65;100.00;96063.22;1023920;29;20023;-62
2021/04/20 02:11:19;;;;;;;51.30;30.67;;;;;;;5.65;100.00;96062.41;1031835;28;20026;-62
2021/04/20 02:11:50;;;;;;;49.35;30.65;;;;;;;5.64;100.00;96066.84;1023849;29;20023;-62
2021/04/20 02:12:21;;;;;;;49.83;30.65;;;;;;;5.61;100.00;96061.03;1031760;28;20515;-60
2021/04/20 02:12:52;;;;;;;52.28;30.70;;;;;;;5.62;100.00;96065.31;1027882;28;20034;-62
2021/04/20 02:13:23;;;;;;;47.28;29.80;;;;;;;5.63;100.00;96064.34;1027740;28;20033;-61
2021/04/20 02:13:56;;;;;;;47.35;30.35;;;;;;;5.54;100.00;96065.19;1019754;29;20512;-62
2021/04/20 02:14:27;;;;;;;50.65;30.90;;;;;;;5.57;100.00;96062.28;1027695;28;20026;-60
2021/04/20 02:14:58;;;;;;;49.97;30.40;;;;;;;5.59;100.00;96061.16;1019887;29;20027;-61
2021/04/20 02:15:28;;;;;;;51.22;30.85;;;;;;;5.62;100.00;96057.41;1027782;28;20061;-59
2021/04/20 02:16:01;;;;;;;51.67;30.77;;;;;;;5.63;100.00;96053.81;1027789;28;20022;-61
2021/04/20 02:16:32;;;;;;;48.90;30.25;;;;;;;5.61;100.00;96055.75;1027682;28;20023;-61
2021/04/20 02:17:03;;;;;;;49.50;29.08;;;;;;;5.60;100.00;96064.63;1035763;28;20026;-60
2021/04/20 02:17:34;;;;;;;51.78;31.40;;;;;;;5.58;100.00;96062.13;1019898;29;20489;-63
2021/04/20 02:18:05;;;;;;;48.47;28.95;;;;;;;5.62;100.00;96057.41;1023871;29;20012;-61
2021/04/20 02:18:40;;;;;;;54.50;31.75;;;;;;;5.64;100.00;96066.00;1015874;29;20456;-61
2021/04/20 02:19:13;;;;;;;46.95;30.80;;;;;;;5.64;100.00;96058.94;1019863;29;20486;-62
2021/04/20 02:19:43;;;;;;;53.97;31.30;;;;;;;5.64;100.00;96060.72;1023874;29;20047;-61
2021/04/20 02:20:14;;;;;;;51.22;30.77;;;;;;;5.65;100.00;96062.41;1023955;29;20054;-62
2021/04/20 02:20:45;;;;;;;55.90;32.10;;;;;;;5.67;100.00;96060.44;1023804;29;20106;-61
2021/04/20 02:21:17;;;;;;;52.85;31.88;;;;;;;5.61;100.00;96047.84;1027871;28;20026;-61
2021/04/20 02:21:48;;;;;;;54.05;33.22;;;;;;;5.67;100.00;96063.91;1023862;29;20030;-62
2021/04/20 02:22:18;;;;;;;55.60;32.53;;;;;;;5.69;100.00;96060.31;1019819;29;20030;-62
2021/04/20 02:22:49;;;;;;;54.78;32.45;;;;;;;5.69;100.00;96061.13;1023718;29;20556;-61
2021/04/20 02:23:21;;;;;;;51.38;30.70;;;;;;;5.71;100.00;96055.72;1031822;28;20022;-61
2021/04/20 02:23:51;;;;;;;57.78;34.03;;;;;;;5.69;100.00;96058.50;1027565;28;20038;-62
2021/04/20 02:24:23;;;;;;;48.45;31.10;;;;;;;5.71;100.00;96059.19;1023800;29;20024;-61